Time;durP1;ratioP1;P1;durP2;ratioP2;P2;SDS_P1;SDS_P2;PMS_P1;PMS_P2;Temp;Humidity;BMP_temperature;BMP_pressure;BME280_temperature;BME280_humidity;BME280_pressure;Samples;Min_cycle;Max_cycle;Signal;HPM_P1;HPM_P2
2022/02/21 05:46:29;;;;;;;0.85;0.50;;;;;;;8.18;65.53;97835.03;4986347;28;106394;-74
2022/02/21 05:48:54;;;;;;;0.70;0.40;;;;;;;8.24;65.66;97831.53;4986383;28;105888;-76
2022/02/21 05:51:20;;;;;;;1.60;0.50;;;;;;;8.33;65.25;97832.09;4983767;28;106308;-73
2022/02/21 05:53:47;;;;;;;0.50;0.40;;;;;;;8.40;64.90;97832.88;4985213;28;105910;-74
2022/02/21 05:56:13;;;;;;;0.98;0.57;;;;;;;8.46;64.98;97872.66;4983783;28;106304;-76
2022/02/21 05:58:39;;;;;;;0.95;0.50;;;;;;;8.49;64.99;97828.97;4986035;28;106076;-78
2022/02/21 06:01:04;;;;;;;1.52;0.65;;;;;;;8.51;64.52;97826.09;4985648;28;106284;-78
2022/02/21 06:03:31;;;;;;;1.25;0.75;;;;;;;8.54;64.78;97833.63;4983715;28;106799;-78
2022/02/21 06:05:57;;;;;;;0.80;0.50;;;;;;;8.55;64.71;97820.13;4985114;28;106033;-78
2022/02/21 06:08:23;;;;;;;0.70;0.60;;;;;;;8.55;64.23;97840.56;4985708;28;105900;-78
2022/02/21 06:10:49;;;;;;;0.50;0.45;;;;;;;8.59;64.15;97837.25;4985113;28;106130;-78
2022/02/21 06:13:15;;;;;;;2.17;0.43;;;;;;;8.63;63.95;97842.94;4984633;28;106120;-80
2022/02/21 06:15:40;;;;;;;0.70;0.60;;;;;;;8.66;64.20;97841.72;4985010;28;106000;-81
2022/02/21 06:18:06;;;;;;;0.98;0.75;;;;;;;8.66;64.50;97834.56;4984894;28;105885;-76
2022/02/21 06:20:31;;;;;;;0.70;0.60;;;;;;;8.67;63.97;97844.16;4984919;28;105818;-75
2022/02/21 06:22:56;;;;;;;1.00;0.55;;;;;;;8.68;63.90;97845.78;4984672;28;105905;-75
2022/02/21 06:25:22;;;;;;;1.23;0.70;;;;;;;8.67;64.11;97835.38;4984466;28;107621;-75
2022/02/21 06:27:48;;;;;;;0.88;0.50;;;;;;;8.67;63.99;97852.09;4985526;28;106340;-75
2022/02/21 06:30:14;;;;;;;1.42;0.77;;;;;;;8.68;64.41;97855.56;4984378;28;105982;-74
2022/02/21 06:32:39;;;;;;;2.67;0.90;;;;;;;8.66;64.09;97862.94;4984540;28;105854;-74
2022/02/21 06:35:05;;;;;;;1.45;1.02;;;;;;;8.67;63.71;97872.53;4984434;28;106654;-75
2022/02/21 06:37:30;;;;;;;2.58;1.05;;;;;;;8.65;64.37;97901.94;4985428;28;106256;-78
2022/02/21 06:39:55;;;;;;;0.98;0.82;;;;;;;8.66;64.31;97961.16;4965782;28;106253;-75
2022/02/21 06:42:21;;;;;;;2.53;1.30;;;;;;;8.66;64.34;97982.38;4979321;28;120390;-74
2022/02/21 06:44:46;;;;;;;1.15;0.57;;;;;;;8.56;64.22;97975.69;4983194;28;122814;-74
2022/02/21 06:47:11;;;;;;;0.50;0.40;;;;;;;8.37;63.81;97961.44;4985284;28;106358;-76
2022/02/21 06:49:38;;;;;;;0.80;0.47;;;;;;;8.16;64.19;97940.50;4982967;28;106378;-77
2022/02/21 06:52:04;;;;;;;0.95;0.50;;;;;;;8.02;64.83;97945.84;4983454;28;105912;-77
2022/02/21 06:54:29;;;;;;;1.45;0.70;;;;;;;7.90;64.33;97956.31;4981525;28;106121;-77
2022/02/21 06:56:54;;;;;;;1.40;0.60;;;;;;;7.86;65.24;97965.69;4976349;28;106272;-79
2022/02/21 06:59:20;;;;;;;1.05;0.50;;;;;;;7.81;65.09;97972.66;4970435;28;115940;-75
2022/02/21 07:01:45;;;;;;;0.30;0.30;;;;;;;7.75;64.89;97985.69;4970442;28;106125;-76
2022/02/21 07:04:11;;;;;;;1.52;0.68;;;;;;;7.73;64.32;97963.88;4970280;28;109088;-75
2022/02/21 07:06:36;;;;;;;0.70;0.60;;;;;;;7.75;65.27;97977.75;4971022;28;105914;-76
2022/02/21 07:09:03;;;;;;;0.57;0.47;;;;;;;7.79;64.61;97988.72;4970856;28;106352;-76
2022/02/21 07:11:28;;;;;;;1.08;0.50;;;;;;;7.85;64.73;97984.47;4970300;28;106011;-75
2022/02/21 07:13:53;;;;;;;1.35;0.60;;;;;;;7.89;64.09;98002.38;4970283;28;105984;-76
2022/02/21 07:16:19;;;;;;;1.00;0.52;;;;;;;7.94;64.34;97999.09;4965450;28;106115;-73
2022/02/21 07:18:44;;;;;;;0.95;0.40;;;;;;;7.97;63.34;97998.72;4958466;28;114500;-75
2022/02/21 07:21:09;;;;;;;0.73;0.40;;;;;;;8.02;63.97;97988.28;4969219;28;116788;-75
2022/02/21 07:23:37;;;;;;;1.25;0.65;;;;;;;8.05;63.04;98027.66;4969290;28;126526;-75
2022/02/21 07:26:04;;;;;;;1.23;0.50;;;;;;;8.03;62.24;98005.03;4970998;28;105862;-73
2022/02/21 07:28:29;;;;;;;1.10;0.57;;;;;;;8.05;61.11;98022.34;4968379;28;106159;-75
2022/02/21 07:30:55;;;;;;;0.85;0.40;;;;;;;8.04;60.01;98038.47;4970345;28;106394;-75
2022/02/21 07:33:20;;;;;;;0.90;0.40;;;;;;;8.00;60.11;98051.31;4970036;28;110394;-74
2022/02/21 07:35:45;;;;;;;1.10;0.60;;;;;;;7.97;59.60;98054.41;4971276;28;106072;-73
2022/02/21 07:38:11;;;;;;;1.52;0.60;;;;;;;7.91;59.12;98063.16;4969655;28;110843;-74
2022/02/21 07:40:36;;;;;;;0.85;0.50;;;;;;;7.88;58.93;98074.19;4969654;28;106064;-75
2022/02/21 07:43:02;;;;;;;0.32;0.25;;;;;;;7.85;58.70;98056.03;4970056;28;105878;-74
2022/02/21 07:45:27;;;;;;;0.65;0.30;;;;;;;7.79;58.39;98062.94;4970363;28;105838;-76
2022/02/21 07:47:58;;;;;;;1.70;0.30;;;;;;;7.68;58.49;98082.94;4968934;28;105961;-75
2022/02/21 07:50:26;;;;;;;0.73;0.50;;;;;;;7.60;57.67;98060.09;4969731;28;106099;-76
2022/02/21 07:52:52;;;;;;;0.80;0.45;;;;;;;7.54;57.80;98079.44;4969705;28;105934;-74
2022/02/21 07:55:18;;;;;;;1.13;0.40;;;;;;;7.47;57.70;98067.25;4966626;28;106098;-76
2022/02/21 07:57:45;;;;;;;0.77;0.52;;;;;;;7.41;57.88;98071.50;4955668;28;106061;-75
2022/02/21 08:00:13;;;;;;;1.38;0.43;;;;;;;7.37;57.53;98079.03;4949593;28;105992;-75
2022/02/21 08:02:39;;;;;;;2.13;0.50;;;;;;;7.29;58.13;98081.88;4950204;28;106549;-76
2022/02/21 08:05:05;;;;;;;2.00;0.60;;;;;;;7.21;58.33;98080.22;4951207;28;106184;-74
2022/02/21 08:07:31;;;;;;;1.05;0.50;;;;;;;7.21;58.44;98092.66;4964077;28;106233;-74
2022/02/21 08:09:56;;;;;;;1.75;0.55;;;;;;;7.17;57.98;98084.28;4969096;28;106116;-74
2022/02/21 08:12:22;;;;;;;0.95;0.52;;;;;;;7.15;57.83;98056.38;4969493;28;106138;-75
2022/02/21 08:14:48;;;;;;;2.55;0.40;;;;;;;7.11;57.84;98050.69;4969174;28;106081;-74
2022/02/21 08:17:13;;;;;;;0.95;0.40;;;;;;;7.09;57.76;98056.19;4969855;28;106288;-72
2022/02/21 08:19:38;;;;;;;0.77;0.38;;;;;;;7.07;57.77;98060.84;4969586;28;112667;-73
2022/02/21 08:22:04;;;;;;;1.15;0.40;;;;;;;7.03;58.14;98062.25;4969422;28;106292;-73
2022/02/21 08:24:29;;;;;;;0.85;0.35;;;;;;;7.05;58.54;98067.34;4970372;28;106006;-72
2022/02/21 08:26:55;;;;;;;3.00;1.30;;;;;;;7.05;57.62;98060.25;4969646;28;106137;-72
2022/02/21 08:29:20;;;;;;;0.68;0.50;;;;;;;7.09;57.81;98050.88;4969254;28;106031;-73
2022/02/21 08:31:46;;;;;;;1.38;0.43;;;;;;;7.06;57.52;98048.63;4969393;28;105874;-74
2022/02/21 08:34:12;;;;;;;2.70;0.40;;;;;;;7.00;57.50;98028.25;4969828;28;106130;-74
2022/02/21 08:36:37;;;;;;;2.13;0.57;;;;;;;6.89;57.57;98047.34;4968058;28;106030;-75
2022/02/21 08:39:03;;;;;;;1.48;0.70;;;;;;;6.85;57.24;98041.66;4968887;28;106803;-76
2022/02/21 08:41:28;;;;;;;2.35;0.60;;;;;;;6.76;57.55;98046.28;4969104;28;105971;-76
2022/02/21 08:43:54;;;;;;;1.42;0.60;;;;;;;6.71;57.22;98084.94;4969719;28;106119;-76
2022/02/21 08:46:20;;;;;;;1.23;0.75;;;;;;;6.67;57.50;98084.53;4968689;28;106707;-75
2022/02/21 08:48:45;;;;;;;2.45;0.80;;;;;;;6.68;57.95;98074.75;4968662;28;106749;-76
2022/02/21 08:51:11;;;;;;;1.38;0.57;;;;;;;6.73;58.16;98048.53;4968465;28;109011;-74
2022/02/21 08:53:36;;;;;;;1.38;0.95;;;;;;;6.83;58.28;98064.03;4969542;28;105890;-76
2022/02/21 08:56:03;;;;;;;1.52;0.80;;;;;;;6.91;58.84;98074.44;4969065;28;106270;-75
2022/02/21 08:58:28;;;;;;;2.88;1.40;;;;;;;6.96;58.42;98079.97;4968755;28;106424;-75
2022/02/21 09:00:53;;;;;;;3.03;0.88;;;;;;;7.05;58.60;98080.59;4968768;28;106026;-76
2022/02/21 09:03:19;;;;;;;1.73;0.80;;;;;;;7.44;59.06;98074.56;4969910;28;105878;-78
2022/02/21 09:05:44;;;;;;;1.40;0.90;;;;;;;7.54;58.82;98083.94;4967949;28;105964;-76
2022/02/21 09:08:09;;;;;;;1.80;0.93;;;;;;;7.48;57.97;98090.03;4968163;28;118047;-77
2022/02/21 09:10:35;;;;;;;2.75;1.10;;;;;;;7.41;58.47;98122.66;4968171;28;105924;-75
2022/02/21 09:13:01;;;;;;;2.47;1.10;;;;;;;7.37;58.22;98134.66;4969636;28;105923;-77
2022/02/21 09:15:26;;;;;;;2.78;1.00;;;;;;;7.30;58.84;98149.72;4968755;28;106233;-74
2022/02/21 09:17:53;;;;;;;1.65;0.73;;;;;;;7.26;58.95;98151.94;4968783;28;105785;-74
2022/02/21 09:20:19;;;;;;;2.50;1.15;;;;;;;7.24;58.77;98177.00;4966582;28;106508;-74
2022/02/21 09:22:45;;;;;;;2.88;1.20;;;;;;;7.23;58.97;98178.00;4969258;28;105867;-76
2022/02/21 09:25:11;;;;;;;4.05;1.85;;;;;;;7.23;59.08;98167.41;4968626;28;106177;-75
2022/02/21 09:27:37;;;;;;;3.90;2.40;;;;;;;7.25;58.55;98181.28;4968201;28;106336;-76
2022/02/21 09:30:04;;;;;;;3.25;1.00;;;;;;;7.37;58.58;98177.03;4968329;28;105921;-75
2022/02/21 09:32:30;;;;;;;1.40;0.77;;;;;;;7.51;58.45;98195.63;4968713;28;105964;-75
2022/02/21 09:34:56;;;;;;;1.17;0.63;;;;;;;7.59;57.84;98190.97;4968592;28;106331;-76
2022/02/21 09:37:22;;;;;;;3.33;0.95;;;;;;;7.56;56.85;98198.47;4968050;28;106066;-76
2022/02/21 09:39:47;;;;;;;1.27;0.70;;;;;;;7.49;56.58;98210.91;4968701;28;105936;-77
2022/02/21 09:42:12;;;;;;;0.77;0.70;;;;;;;7.47;56.72;98228.84;4968889;28;106223;-75
2022/02/21 09:44:38;;;;;;;1.27;1.02;;;;;;;7.42;56.89;98218.81;4968284;28;105939;-75
2022/02/21 09:47:05;;;;;;;1.27;0.65;;;;;;;7.44;57.07;98207.03;4967903;28;119041;-75
2022/02/21 09:49:30;;;;;;;0.60;0.40;;;;;;;7.35;55.74;98228.59;4967411;28;106225;-77
2022/02/21 09:51:56;;;;;;;2.25;0.40;;;;;;;7.14;55.50;98261.31;4968618;28;106052;-78
2022/02/21 09:54:23;;;;;;;1.83;0.70;;;;;;;6.88;55.73;98294.53;4968129;28;105890;-75
2022/02/21 09:56:48;;;;;;;1.15;0.95;;;;;;;6.62;55.82;98287.22;4967504;28;105931;-79
2022/02/21 09:59:14;;;;;;;0.32;0.30;;;;;;;6.37;56.06;98296.38;4966686;28;106418;-75
2022/02/21 10:01:42;;;;;;;1.67;0.60;;;;;;;6.15;56.78;98295.56;4968603;28;105926;-76
2022/02/21 10:04:20;;;;;;;1.63;0.50;;;;;;;5.97;56.96;98295.13;4967739;28;106176;-74
2022/02/21 10:06:49;;;;;;;2.33;0.57;;;;;;;5.87;57.32;98296.22;4967402;28;105963;-75
2022/02/21 10:09:15;;;;;;;1.27;0.73;;;;;;;5.77;57.63;98306.28;4967425;28;106009;-78
2022/02/21 10:11:48;;;;;;;2.60;0.70;;;;;;;5.72;57.75;98298.91;4968107;28;106297;-76
2022/02/21 10:14:20;;;;;;;1.60;0.60;;;;;;;5.74;58.26;98290.78;4967771;28;105831;-79
2022/02/21 10:16:54;;;;;;;4.30;0.75;;;;;;;5.81;57.77;98314.66;4967124;28;107701;-77
2022/02/21 10:19:21;;;;;;;3.50;0.73;;;;;;;5.88;57.84;98291.78;4965907;28;106083;-77
2022/02/21 10:22:06;;;;;;;3.35;1.00;;;;;;;5.95;57.87;98291.84;4966466;28;106483;-78
2022/02/21 10:24:41;;;;;;;2.65;1.20;;;;;;;6.07;58.11;98291.19;4967732;28;106321;-78
2022/02/21 10:27:13;;;;;;;3.03;1.23;;;;;;;6.14;57.57;98323.00;4967495;28;106020;-77
2022/02/21 10:29:46;;;;;;;1.67;0.70;;;;;;;6.15;57.08;98314.06;4967641;28;106350;-76
2022/02/21 10:32:13;;;;;;;3.90;1.00;;;;;;;6.30;57.68;98311.34;4969358;28;106089;-79
2022/02/21 10:34:38;;;;;;;1.25;0.75;;;;;;;6.46;57.37;98322.69;4970960;28;106139;-78
2022/02/21 10:37:05;;;;;;;2.20;0.68;;;;;;;6.42;56.71;98320.44;4970319;28;105893;-79
2022/02/21 10:39:31;;;;;;;1.60;0.60;;;;;;;6.28;56.17;98323.13;4970501;28;106015;-75
2022/02/21 10:41:58;;;;;;;1.55;0.68;;;;;;;6.21;56.08;98334.44;4971570;28;105917;-75
2022/02/21 10:44:37;;;;;;;4.45;0.65;;;;;;;6.03;56.07;98352.56;4969847;28;106246;-77
2022/02/21 10:47:08;;;;;;;0.47;0.30;;;;;;;5.93;56.48;98350.16;4952300;28;109287;-75
2022/02/21 10:49:38;;;;;;;2.70;0.80;;;;;;;5.87;56.20;98348.28;4969837;28;106394;-80
2022/02/21 10:52:04;;;;;;;3.05;1.00;;;;;;;5.88;56.57;98357.84;4970801;28;106113;-75
2022/02/21 10:54:37;;;;;;;2.78;1.00;;;;;;;5.95;56.91;98371.16;4970529;28;106423;-77
2022/02/21 10:57:06;;;;;;;4.43;1.90;;;;;;;5.96;56.47;98363.03;4969570;28;107811;-76
2022/02/21 10:59:32;;;;;;;2.17;0.90;;;;;;;5.90;56.49;98353.19;4970323;28;106423;-76
2022/02/21 11:02:00;;;;;;;1.48;1.00;;;;;;;5.93;56.29;98350.16;4970973;28;105946;-77
2022/02/21 11:04:27;;;;;;;1.00;0.50;;;;;;;5.96;56.52;98365.66;4970261;28;106017;-77
2022/02/21 11:06:52;;;;;;;2.67;1.27;;;;;;;5.93;56.72;98379.22;4969929;28;106361;-76
2022/02/21 11:09:20;;;;;;;8.90;3.10;;;;;;;6.01;56.67;98402.94;4970064;28;106238;-73
2022/02/21 11:11:48;;;;;;;4.03;1.17;;;;;;;6.07;55.87;98385.56;4970674;28;106283;-75
2022/02/21 11:14:19;;;;;;;1.67;0.93;;;;;;;6.04;55.95;98394.66;4969928;28;106129;-74
2022/02/21 11:16:46;;;;;;;5.32;2.35;;;;;;;6.05;55.60;98385.72;4970006;28;106801;-75
2022/02/21 11:19:21;;;;;;;1.65;0.80;;;;;;;6.15;55.61;98418.97;4970131;28;106049;-76
2022/02/21 11:21:48;;;;;;;3.97;1.00;;;;;;;6.27;54.89;98406.91;4970623;28;105879;-78
2022/02/21 11:24:15;;;;;;;2.85;1.00;;;;;;;6.44;54.82;98400.41;4969849;28;106266;-78
2022/02/21 11:27:05;;;;;;;4.18;1.55;;;;;;;6.72;54.46;98393.53;4969892;28;105914;-78
2022/02/21 11:29:42;;;;;;;1.40;0.70;;;;;;;7.14;54.67;98412.22;4969838;28;106353;-78
2022/02/21 11:32:15;;;;;;;2.17;0.90;;;;;;;7.91;53.60;98411.31;4970744;28;105870;-77
2022/02/21 11:35:08;;;;;;;2.20;0.95;;;;;;;11.38;54.45;98386.84;4970183;28;106125;-76
2022/02/21 11:37:33;;;;;;;3.42;1.17;;;;;;;15.13;47.04;98398.53;4969662;28;109494;-75
2022/02/21 11:39:58;;;;;;;3.08;0.70;;;;;;;19.05;37.22;98399.91;4968983;28;127818;-72
2022/02/21 11:42:29;;;;;;;3.83;1.63;;;;;;;21.93;34.96;98409.19;4970162;28;106064;-73
2022/02/21 11:44:59;;;;;;;8.05;2.20;;;;;;;24.62;30.72;98409.13;4969285;28;106230;-85
2022/02/21 11:47:37;;;;;;;;;;;;;;;25.52;25.37;98429.38;4969256;28;108917;-80
2022/02/21 11:50:06;;;;;;;4.43;1.17;;;;;;;25.33;23.58;98418.66;4970192;28;105876;-79
2022/02/21 11:52:37;;;;;;;6.03;0.98;;;;;;;26.71;24.25;98418.69;4971272;28;106008;-77
2022/02/21 11:55:29;;;;;;;3.63;1.00;;;;;;;27.62;22.98;98417.94;4969681;28;106213;-81
2022/02/21 11:57:54;;;;;;;3.50;0.90;;;;;;;27.86;21.43;98422.84;4969691;28;105778;-74
2022/02/21 12:00:32;;;;;;;3.88;1.15;;;;;;;25.05;20.30;98423.41;4968985;28;105882;-76
2022/02/21 12:03:21;;;;;;;5.40;1.10;;;;;;;21.61;23.26;98454.00;4970032;28;106258;-76
2022/02/21 12:05:47;;;;;;;3.83;1.20;;;;;;;18.48;25.93;98432.19;4969914;28;105955;-80
2022/02/21 12:08:31;;;;;;;2.53;0.70;;;;;;;17.12;27.22;98382.41;4966945;28;106086;-79
2022/02/21 12:11:02;;;;;;;1.92;0.70;;;;;;;19.67;25.14;98424.97;4969486;28;106308;-76
2022/02/21 12:13:32;;;;;;;2.75;0.55;;;;;;;22.98;21.67;98423.84;4969950;28;106117;-73
2022/02/21 12:16:02;;;;;;;;;;;;;;;23.07;20.53;98410.41;4970158;28;105918;-79
2022/02/21 12:18:30;;;;;;;2.92;1.00;;;;;;;22.48;20.84;98427.00;4969010;28;105956;-74
2022/02/21 12:21:09;;;;;;;4.75;1.77;;;;;;;23.36;20.87;98417.56;4966869;28;107450;-73
2022/02/21 12:23:35;;;;;;;2.60;1.05;;;;;;;25.77;19.09;98424.34;4969523;28;105992;-73
2022/02/21 12:26:00;;;;;;;4.05;0.98;;;;;;;27.19;17.80;98416.91;4969232;28;105865;-75
2022/02/21 12:28:29;;;;;;;3.92;0.73;;;;;;;28.23;16.72;98420.44;4968845;28;106086;-74
2022/02/21 12:30:57;;;;;;;5.32;1.17;;;;;;;27.93;15.39;98389.50;4968885;28;106126;-76
2022/02/21 12:33:23;;;;;;;2.65;0.60;;;;;;;28.43;15.18;98434.47;4970412;28;105870;-75
2022/02/21 12:35:54;;;;;;;3.95;1.42;;;;;;;27.90;15.56;98421.06;4967456;28;105946;-75
2022/02/21 12:38:22;;;;;;;3.80;0.88;;;;;;;27.74;15.20;98434.47;4968683;28;106543;-75
2022/02/21 12:41:02;;;;;;;2.83;0.55;;;;;;;28.72;15.40;98397.22;4967757;28;106007;-76
2022/02/21 12:43:49;;;;;;;3.65;0.80;;;;;;;29.24;14.68;98412.41;4969470;28;105916;-74
2022/02/21 12:46:20;;;;;;;3.72;0.60;;;;;;;27.61;15.57;98449.97;4968093;28;106318;-73
2022/02/21 12:48:46;;;;;;;2.95;0.80;;;;;;;23.27;18.07;98442.69;4968787;28;106836;-74
2022/02/21 12:51:21;;;;;;;4.15;0.80;;;;;;;22.01;19.23;98407.78;4966404;28;107691;-75
2022/02/21 12:53:53;;;;;;;6.75;3.58;;;;;;;18.58;22.41;98431.38;4968667;28;106360;-74
2022/02/21 12:56:18;;;;;;;3.67;1.58;;;;;;;16.32;25.01;98454.72;4967707;28;106148;-74
2022/02/21 12:58:44;;;;;;;2.80;1.17;;;;;;;17.77;24.92;98423.47;4968858;28;105874;-74
2022/02/21 13:01:14;;;;;;;4.18;1.60;;;;;;;21.94;21.29;98446.06;4968819;28;106101;-81
2022/02/21 13:03:39;;;;;;;3.58;1.38;;;;;;;24.67;18.60;98433.53;4967472;28;106265;-74
2022/02/21 13:06:05;;;;;;;4.00;1.20;;;;;;;25.60;17.05;98420.44;4968845;28;106251;-77
2022/02/21 13:08:35;;;;;;;3.40;1.23;;;;;;;26.11;16.72;98406.53;4968808;28;106069;-73
2022/02/21 13:11:00;;;;;;;4.50;1.70;;;;;;;24.84;17.93;98432.06;4968324;28;106271;-75
2022/02/21 13:13:26;;;;;;;3.60;1.05;;;;;;;23.53;18.92;98427.88;4968952;28;106065;-80
2022/02/21 13:15:51;;;;;;;7.55;0.95;;;;;;;;;;4968569;28;110045;-79
2022/02/21 13:18:17;;;;;;;4.18;1.20;;;;;;;18.54;22.37;98417.63;4968789;28;106050;-81
2022/02/21 13:20:45;;;;;;;3.47;1.00;;;;;;;16.08;24.59;98420.84;4967969;28;115319;-80
2022/02/21 13:23:11;;;;;;;3.08;0.80;;;;;;;14.24;26.77;98443.53;4967463;28;106166;-80
2022/02/21 13:25:37;;;;;;;2.38;1.05;;;;;;;13.10;28.09;98448.19;4969116;28;106310;-81
2022/02/21 13:28:16;;;;;;;2.58;0.75;;;;;;;13.75;28.39;98418.97;4968329;28;106300;-77
2022/02/21 13:30:42;;;;;;;1.67;0.82;;;;;;;18.06;24.23;98419.63;4968824;28;106043;-84
2022/02/21 13:33:13;;;;;;;1.92;0.65;;;;;;;20.83;20.87;98423.19;4969670;28;105909;-77
2022/02/21 13:35:41;;;;;;;4.18;1.35;;;;;;;22.86;18.98;98429.72;4967829;28;106208;-76
2022/02/21 13:38:07;;;;;;;3.33;1.30;;;;;;;21.42;19.60;98436.78;4968022;28;106638;-75
2022/02/21 13:40:34;;;;;;;1.73;0.90;;;;;;;20.15;21.05;98434.56;4967824;28;106234;-77
2022/02/21 13:43:02;;;;;;;1.60;0.60;;;;;;;21.73;19.91;98444.66;4968346;28;106107;-82
2022/02/21 13:45:37;;;;;;;4.88;2.03;;;;;;;23.72;18.70;98404.13;4967905;28;105912;-79
2022/02/21 13:48:06;;;;;;;5.40;1.10;;;;;;;25.69;17.11;98412.28;4968015;28;105838;-79
2022/02/21 13:50:51;;;;;;;3.22;0.90;;;;;;;26.26;16.41;98414.25;4967839;28;105982;-78
2022/02/21 13:53:36;;;;;;;1.63;0.95;;;;;;;24.11;16.79;98423.78;4969413;28;106152;-76
2022/02/21 13:56:11;;;;;;;2.00;0.80;;;;;;;20.74;18.69;98432.97;4966104;28;106359;-73
2022/02/21 13:58:40;;;;;;;2.38;0.77;;;;;;;22.34;17.62;98420.66;4968018;28;107999;-78
2022/02/21 14:01:09;;;;;;;2.28;0.73;;;;;;;20.22;18.68;98422.41;4967484;28;107106;-78
2022/02/21 14:03:56;;;;;;;2.55;0.85;;;;;;;20.95;17.81;98418.22;4969414;28;106304;-83
2022/02/21 14:06:32;;;;;;;2.40;0.80;;;;;;;21.76;17.01;98419.69;4967424;28;106247;-73
2022/02/21 14:08:59;;;;;;;2.80;1.00;;;;;;;22.86;16.45;98375.44;4971056;28;106090;-74
2022/02/21 14:11:33;;;;;;;3.53;0.80;;;;;;;23.37;16.26;98409.09;4970061;28;106023;-74
2022/02/21 14:14:01;;;;;;;3.22;0.88;;;;;;;20.14;17.90;98416.75;4972546;28;106192;-73
2022/02/21 14:16:28;;;;;;;2.95;1.05;;;;;;;17.02;20.85;98420.00;4975402;28;106164;-73
2022/02/21 14:18:54;;;;;;;2.53;1.15;;;;;;;15.12;22.83;98432.59;4975762;28;105897;-74
2022/02/21 14:21:19;;;;;;;3.97;1.02;;;;;;;14.69;24.33;98431.31;4986607;28;106197;-72
2022/02/21 14:23:46;;;;;;;2.78;0.80;;;;;;;15.19;23.03;98435.94;4968366;28;107031;-72
2022/02/21 14:26:11;;;;;;;2.00;1.00;;;;;;;13.71;24.92;98448.06;4979235;28;106342;-72
2022/02/21 14:28:37;;;;;;;3.80;0.90;;;;;;;12.74;26.28;98443.78;4978308;28;106068;-72
2022/02/21 14:31:03;;;;;;;4.88;2.10;;;;;;;14.18;25.54;98441.81;4985692;28;105973;-71
2022/02/21 14:33:29;;;;;;;4.07;1.00;;;;;;;16.58;22.78;98445.88;4988214;28;106229;-71
2022/02/21 14:35:55;;;;;;;7.82;1.05;;;;;;;16.24;23.33;98446.03;4976023;28;106131;-72
2022/02/21 14:38:22;;;;;;;3.10;1.00;;;;;;;18.66;21.32;98448.91;4973192;28;107613;-72
2022/02/21 14:40:47;;;;;;;2.63;0.93;;;;;;;19.97;19.62;98433.28;4982689;28;106056;-72
2022/02/21 14:43:13;;;;;;;3.47;1.40;;;;;;;20.73;19.23;98456.50;4981066;28;106072;-72
2022/02/21 14:45:39;;;;;;;6.75;1.77;;;;;;;20.38;19.68;98447.47;4976058;28;106017;-71
2022/02/21 14:48:06;;;;;;;3.00;1.17;;;;;;;20.57;19.68;98447.66;4986327;28;106677;-71
2022/02/21 14:50:32;;;;;;;4.55;0.90;;;;;;;20.74;19.62;98444.59;4975137;28;105898;-71
2022/02/21 14:52:57;;;;;;;2.85;1.00;;;;;;;20.52;19.75;98449.59;4982599;28;106129;-71
2022/02/21 14:55:23;;;;;;;8.45;1.20;;;;;;;20.74;19.57;98447.31;4982450;28;106132;-71
2022/02/21 14:57:48;;;;;;;2.35;1.13;;;;;;;20.51;19.91;98445.25;4974559;28;106306;-71
2022/02/21 15:00:15;;;;;;;2.65;0.70;;;;;;;20.83;19.67;98435.88;4983922;28;106406;-72
2022/02/21 15:02:41;;;;;;;3.15;1.30;;;;;;;20.68;19.90;98434.91;4976775;28;105996;-72
2022/02/21 15:05:08;;;;;;;3.63;1.15;;;;;;;20.71;19.79;98437.06;4980331;28;106097;-72
2022/02/21 15:07:33;;;;;;;4.00;1.20;;;;;;;20.53;20.19;98433.06;4983223;28;106282;-72
2022/02/21 15:09:59;;;;;;;4.00;2.05;;;;;;;20.26;20.72;98436.97;4941773;28;106015;-72
2022/02/21 15:12:25;;;;;;;3.63;1.70;;;;;;;20.61;20.81;98432.47;4951512;28;106234;-72
